sensor_id;sensor_type;location;lat;lon;timestamp;pressure;altitude;pressure_sealevel;temperature;humidity
7668;BME280;3876;42.204;24.686;2024-03-02T00:00:36;99066.75;;;8.92;100.00
7668;BME280;3876;42.204;24.686;2024-03-02T00:03:04;99067.75;;;8.87;100.00
7668;BME280;3876;42.204;24.686;2024-03-02T00:05:31;99063.69;;;8.80;100.00
7668;BME280;3876;42.204;24.686;2024-03-02T00:07:59;99068.81;;;8.80;100.00
7668;BME280;3876;42.204;24.686;2024-03-02T00:10:30;99070.41;;;8.84;100.00
7668;BME280;3876;42.204;24.686;2024-03-02T00:13:02;99062.91;;;8.78;100.00
7668;BME280;3876;42.204;24.686;2024-03-02T00:15:47;99065.59;;;8.73;100.00
7668;BME280;3876;42.204;24.686;2024-03-02T00:18:18;99062.25;;;8.71;100.00
7668;BME280;3876;42.204;24.686;2024-03-02T00:20:45;99055.44;;;8.72;100.00
7668;BME280;3876;42.204;24.686;2024-03-02T00:23:15;99053.75;;;8.71;100.00
7668;BME280;3876;42.204;24.686;2024-03-02T00:25:43;99058.00;;;8.70;100.00
7668;BME280;3876;42.204;24.686;2024-03-02T00:28:16;99064.75;;;8.73;100.00
7668;BME280;3876;42.204;24.686;2024-03-02T00:30:52;99056.13;;;8.77;100.00
7668;BME280;3876;42.204;24.686;2024-03-02T00:33:21;99051.84;;;8.77;100.00
7668;BME280;3876;42.204;24.686;2024-03-02T00:35:48;99051.84;;;8.77;100.00
7668;BME280;3876;42.204;24.686;2024-03-02T00:38:17;99051.09;;;8.74;100.00
7668;BME280;3876;42.204;24.686;2024-03-02T00:40:44;99052.78;;;8.75;100.00
7668;BME280;3876;42.204;24.686;2024-03-02T00:46:18;99041.06;;;8.68;100.00
7668;BME280;3876;42.204;24.686;2024-03-02T00:48:51;99047.75;;;8.72;100.00
7668;BME280;3876;42.204;24.686;2024-03-02T00:51:19;99026.38;;;8.74;100.00
7668;BME280;3876;42.204;24.686;2024-03-02T00:53:48;99026.41;;;8.73;100.00
7668;BME280;3876;42.204;24.686;2024-03-02T00:56:15;99026.56;;;8.68;100.00
7668;BME280;3876;42.204;24.686;2024-03-02T00:58:42;99022.44;;;8.63;100.00
7668;BME280;3876;42.204;24.686;2024-03-02T01:01:09;99026.56;;;8.68;100.00
7668;BME280;3876;42.204;24.686;2024-03-02T01:03:35;99023.19;;;8.66;100.00
7668;BME280;3876;42.204;24.686;2024-03-02T01:06:04;99021.63;;;8.62;100.00
7668;BME280;3876;42.204;24.686;2024-03-02T01:08:33;99008.09;;;8.59;100.00
7668;BME280;3876;42.204;24.686;2024-03-02T01:11:01;99005.50;;;8.60;100.00
7668;BME280;3876;42.204;24.686;2024-03-02T01:13:27;98997.66;;;8.66;100.00
7668;BME280;3876;42.204;24.686;2024-03-02T01:15:54;98994.34;;;8.63;100.00
7668;BME280;3876;42.204;24.686;2024-03-02T01:18:21;99004.44;;;8.67;100.00
7668;BME280;3876;42.204;24.686;2024-03-02T01:20:49;98990.13;;;8.62;100.00
7668;BME280;3876;42.204;24.686;2024-03-02T01:23:17;98995.34;;;8.59;100.00
7668;BME280;3876;42.204;24.686;2024-03-02T01:25:44;98990.13;;;8.62;100.00
7668;BME280;3876;42.204;24.686;2024-03-02T01:28:13;98998.59;;;8.64;100.00
7668;BME280;3876;42.204;24.686;2024-03-02T01:30:39;98995.34;;;8.59;100.00
7668;BME280;3876;42.204;24.686;2024-03-02T01:33:06;98995.16;;;8.65;100.00
7668;BME280;3876;42.204;24.686;2024-03-02T01:35:33;98995.91;;;8.68;100.00
7668;BME280;3876;42.204;24.686;2024-03-02T01:38:00;98964.53;;;8.63;100.00
7668;BME280;3876;42.204;24.686;2024-03-02T01:40:27;98986.44;;;8.72;100.00
7668;BME280;3876;42.204;24.686;2024-03-02T01:42:54;98996.75;;;8.69;100.00
7668;BME280;3876;42.204;24.686;2024-03-02T01:45:24;98996.56;;;8.75;100.00
7668;BME280;3876;42.204;24.686;2024-03-02T01:47:52;98998.31;;;8.73;100.00
7668;BME280;3876;42.204;24.686;2024-03-02T01:50:24;98996.56;;;8.75;100.00
7668;BME280;3876;42.204;24.686;2024-03-02T01:52:51;98989.22;;;8.63;100.00
7668;BME280;3876;42.204;24.686;2024-03-02T01:55:18;98995.25;;;8.62;100.00
7668;BME280;3876;42.204;24.686;2024-03-02T01:57:46;98985.13;;;8.59;100.00
7668;BME280;3876;42.204;24.686;2024-03-02T02:00:13;98998.66;;;8.61;100.00
7668;BME280;3876;42.204;24.686;2024-03-02T02:02:42;98990.97;;;8.62;100.00
7668;BME280;3876;42.204;24.686;2024-03-02T02:05:09;98981.94;;;8.51;100.00
7668;BME280;3876;42.204;24.686;2024-03-02T02:07:35;98990.34;;;8.54;100.00
7668;BME280;3876;42.204;24.686;2024-03-02T02:10:02;98987.09;;;8.49;100.00
7668;BME280;3876;42.204;24.686;2024-03-02T02:12:29;98962.94;;;8.30;100.00
7668;BME280;3876;42.204;24.686;2024-03-02T02:14:56;98972.31;;;8.29;100.00
7668;BME280;3876;42.204;24.686;2024-03-02T02:17:23;98978.97;;;8.35;100.00
7668;BME280;3876;42.204;24.686;2024-03-02T02:19:51;98983.88;;;8.42;100.00
7668;BME280;3876;42.204;24.686;2024-03-02T02:22:19;98975.31;;;8.43;100.00
7668;BME280;3876;42.204;24.686;2024-03-02T02:24:46;98970.47;;;8.34;100.00
7668;BME280;3876;42.204;24.686;2024-03-02T02:27:13;98983.06;;;8.40;100.00
7668;BME280;3876;42.204;24.686;2024-03-02T02:29:40;98978.94;;;8.36;100.00
7668;BME280;3876;42.204;24.686;2024-03-02T02:32:07;98974.72;;;8.34;100.00
7668;BME280;3876;42.204;24.686;2024-03-02T02:34:34;98977.25;;;8.35;100.00
7668;BME280;3876;42.204;24.686;2024-03-02T02:37:00;98985.59;;;8.42;100.00
7668;BME280;3876;42.204;24.686;2024-03-02T02:39:29;98982.09;;;8.44;100.00
7668;BME280;3876;42.204;24.686;2024-03-02T02:41:55;98976.88;;;8.49;100.00
7668;BME280;3876;42.204;24.686;2024-03-02T02:44:22;98967.63;;;8.45;100.00
7668;BME280;3876;42.204;24.686;2024-03-02T02:46:49;98971.72;;;8.51;100.00
7668;BME280;3876;42.204;24.686;2024-03-02T02:49:16;98972.53;;;8.53;100.00
7668;BME280;3876;42.204;24.686;2024-03-02T02:51:42;98969.88;;;8.56;100.00
7668;BME280;3876;42.204;24.686;2024-03-02T02:54:09;98973.31;;;8.55;100.00
7668;BME280;3876;42.204;24.686;2024-03-02T02:56:37;98959.84;;;8.50;100.00
7668;BME280;3876;42.204;24.686;2024-03-02T02:59:04;98970.06;;;8.50;100.00
7668;BME280;3876;42.204;24.686;2024-03-02T03:01:30;98968.38;;;8.49;100.00
7668;BME280;3876;42.204;24.686;2024-03-02T03:03:57;98973.31;;;8.55;100.00
7668;BME280;3876;42.204;24.686;2024-03-02T03:06:24;98974.13;;;8.55;100.00
7668;BME280;3876;42.204;24.686;2024-03-02T03:08:51;98980.88;;;8.58;100.00
7668;BME280;3876;42.204;24.686;2024-03-02T03:11:17;98970.13;;;8.47;100.00
7668;BME280;3876;42.204;24.686;2024-03-02T03:13:46;98970.19;;;8.43;100.00
7668;BME280;3876;42.204;24.686;2024-03-02T03:16:13;98972.66;;;8.47;100.00
7668;BME280;3876;42.204;24.686;2024-03-02T03:18:40;98968.56;;;8.42;100.00
7668;BME280;3876;42.204;24.686;2024-03-02T03:21:07;98971.88;;;8.44;100.00
7668;BME280;3876;42.204;24.686;2024-03-02T03:23:33;98978.69;;;8.46;100.00
7668;BME280;3876;42.204;24.686;2024-03-02T03:26:00;98978.69;;;8.46;100.00
7668;BME280;3876;42.204;24.686;2024-03-02T03:28:27;98985.53;;;8.43;100.00
7668;BME280;3876;42.204;24.686;2024-03-02T03:30:55;98975.22;;;8.47;100.00
7668;BME280;3876;42.204;24.686;2024-03-02T03:33:21;98986.16;;;8.52;100.00
7668;BME280;3876;42.204;24.686;2024-03-02T03:35:48;98957.59;;;8.39;100.00
7668;BME280;3876;42.204;24.686;2024-03-02T03:38:15;98969.88;;;8.56;100.00
7668;BME280;3876;42.204;24.686;2024-03-02T03:40:41;98963.84;;;8.57;100.00
7668;BME280;3876;42.204;24.686;2024-03-02T03:43:09;98967.31;;;8.56;100.00
7668;BME280;3876;42.204;24.686;2024-03-02T03:45:36;98958.91;;;8.52;100.00
7668;BME280;3876;42.204;24.686;2024-03-02T03:48:04;98970.38;;;8.67;100.00
7668;BME280;3876;42.204;24.686;2024-03-02T03:50:31;98969.41;;;8.71;100.00
7668;BME280;3876;42.204;24.686;2024-03-02T03:52:58;98966.97;;;8.68;100.00
7668;BME280;3876;42.204;24.686;2024-03-02T03:55:24;98969.41;;;8.71;100.00
7668;BME280;3876;42.204;24.686;2024-03-02T03:57:51;98965.44;;;8.62;100.00
7668;BME280;3876;42.204;24.686;2024-03-02T04:00:18;98970.34;;;8.68;100.00
7668;BME280;3876;42.204;24.686;2024-03-02T04:02:45;98969.22;;;8.77;100.00
7668;BME280;3876;42.204;24.686;2024-03-02T04:05:13;98968.19;;;8.84;100.00
7668;BME280;3876;42.204;24.686;2024-03-02T04:07:40;98967.13;;;8.91;100.00
7668;BME280;3876;42.204;24.686;2024-03-02T04:10:08;98966.47;;;8.84;100.00
7668;BME280;3876;42.204;24.686;2024-03-02T04:12:36;98980.84;;;8.87;100.00
7668;BME280;3876;42.204;24.686;2024-03-02T04:15:05;98971.69;;;8.80;100.00
7668;BME280;3876;42.204;24.686;2024-03-02T04:17:32;98985.00;;;8.91;100.00
7668;BME280;3876;42.204;24.686;2024-03-02T04:20:01;98980.03;;;8.86;100.00
7668;BME280;3876;42.204;24.686;2024-03-02T04:22:32;98974.53;;;8.71;100.00
7668;BME280;3876;42.204;24.686;2024-03-02T04:24:59;98977.38;;;8.60;100.00
7668;BME280;3876;42.204;24.686;2024-03-02T04:27:26;98984.09;;;8.64;100.00
7668;BME280;3876;42.204;24.686;2024-03-02T04:29:53;98983.16;;;8.67;100.00
7668;BME280;3876;42.204;24.686;2024-03-02T04:32:19;98987.69;;;8.57;100.00
7668;BME280;3876;42.204;24.686;2024-03-02T04:34:46;98981.84;;;8.54;100.00
7668;BME280;3876;42.204;24.686;2024-03-02T04:37:13;98960.22;;;8.36;100.00
7668;BME280;3876;42.204;24.686;2024-03-02T04:39:41;98981.09;;;8.50;100.00
7668;BME280;3876;42.204;24.686;2024-03-02T04:42:08;98985.38;;;8.50;100.00
7668;BME280;3876;42.204;24.686;2024-03-02T04:44:34;98984.38;;;8.54;100.00
7668;BME280;3876;42.204;24.686;2024-03-02T04:47:02;98984.72;;;8.43;100.00
7668;BME280;3876;42.204;24.686;2024-03-02T04:49:29;98977.75;;;8.48;100.00
7668;BME280;3876;42.204;24.686;2024-03-02T04:51:56;98972.44;;;8.56;100.00
7668;BME280;3876;42.204;24.686;2024-03-02T04:54:23;98963.00;;;8.58;100.00
7668;BME280;3876;42.204;24.686;2024-03-02T04:56:51;98983.16;;;8.67;100.00
7668;BME280;3876;42.204;24.686;2024-03-02T04:59:18;98976.16;;;8.73;100.00
7668;BME280;3876;42.204;24.686;2024-03-02T05:01:45;98982.06;;;8.75;100.00
7668;BME280;3876;42.204;24.686;2024-03-02T05:04:12;98982.06;;;8.75;100.00
7668;BME280;3876;42.204;24.686;2024-03-02T05:06:39;98982.97;;;8.73;100.00
7668;BME280;3876;42.204;24.686;2024-03-02T05:09:06;98983.34;;;8.61;100.00
7668;BME280;3876;42.204;24.686;2024-03-02T05:11:33;98988.41;;;8.62;100.00
7668;BME280;3876;42.204;24.686;2024-03-02T05:14:26;98993.28;;;8.70;100.00
7668;BME280;3876;42.204;24.686;2024-03-02T05:16:54;98977.34;;;8.62;100.00
7668;BME280;3876;42.204;24.686;2024-03-02T05:19:20;98994.03;;;8.73;100.00
7668;BME280;3876;42.204;24.686;2024-03-02T05:21:47;99005.00;;;8.77;100.00
7668;BME280;3876;42.204;24.686;2024-03-02T05:24:15;98999.81;;;8.80;100.00
7668;BME280;3876;42.204;24.686;2024-03-02T05:26:41;99008.28;;;8.82;100.00
7668;BME280;3876;42.204;24.686;2024-03-02T05:29:09;99004.00;;;8.82;100.00
7668;BME280;3876;42.204;24.686;2024-03-02T05:31:37;99011.53;;;8.87;100.00
7668;BME280;3876;42.204;24.686;2024-03-02T05:34:03;99012.47;;;8.84;100.00
7668;BME280;3876;42.204;24.686;2024-03-02T05:36:30;98996.66;;;8.72;100.00
7668;BME280;3876;42.204;24.686;2024-03-02T05:38:57;99018.56;;;8.79;100.00
7668;BME280;3876;42.204;24.686;2024-03-02T05:41:24;99011.91;;;8.75;100.00
7668;BME280;3876;42.204;24.686;2024-03-02T05:43:50;99003.50;;;8.70;100.00
7668;BME280;3876;42.204;24.686;2024-03-02T05:46:17;99006.63;;;8.79;100.00
7668;BME280;3876;42.204;24.686;2024-03-02T05:48:45;99020.91;;;8.86;100.00
7668;BME280;3876;42.204;24.686;2024-03-02T05:51:12;99019.97;;;8.89;100.00
7668;BME280;3876;42.204;24.686;2024-03-02T05:53:39;99017.00;;;8.75;100.00
7668;BME280;3876;42.204;24.686;2024-03-02T05:56:06;99008.72;;;8.67;100.00
7668;BME280;3876;42.204;24.686;2024-03-02T05:58:34;99023.78;;;8.76;100.00
7668;BME280;3876;42.204;24.686;2024-03-02T06:01:15;98982.00;;;8.48;100.00
7668;BME280;3876;42.204;24.686;2024-03-02T06:03:43;98959.69;;;8.23;100.00
7668;BME280;3876;42.204;24.686;2024-03-02T06:06:11;99027.31;;;8.72;100.00
7668;BME280;3876;42.204;24.686;2024-03-02T06:08:38;99014.47;;;8.73;100.00
7668;BME280;3876;42.204;24.686;2024-03-02T06:11:04;99015.28;;;8.75;100.00
7668;BME280;3876;42.204;24.686;2024-03-02T06:13:31;99015.31;;;8.74;100.00
7668;BME280;3876;42.204;24.686;2024-03-02T06:15:58;99016.25;;;8.71;100.00
7668;BME280;3876;42.204;24.686;2024-03-02T06:18:24;99018.94;;;8.67;100.00
7668;BME280;3876;42.204;24.686;2024-03-02T06:20:52;99008.63;;;8.70;100.00
7668;BME280;3876;42.204;24.686;2024-03-02T06:23:20;99011.00;;;8.76;100.00
7668;BME280;3876;42.204;24.686;2024-03-02T06:25:47;99012.59;;;8.80;100.00
7668;BME280;3876;42.204;24.686;2024-03-02T06:28:14;99016.72;;;8.84;100.00
7668;BME280;3876;42.204;24.686;2024-03-02T06:30:41;99013.56;;;8.76;100.00
7668;BME280;3876;42.204;24.686;2024-03-02T06:33:07;99025.53;;;8.74;100.00
7668;BME280;3876;42.204;24.686;2024-03-02T06:35:34;99030.56;;;8.77;100.00
7668;BME280;3876;42.204;24.686;2024-03-02T06:38:01;99023.78;;;8.76;100.00
7668;BME280;3876;42.204;24.686;2024-03-02T06:40:29;99026.13;;;8.83;100.00
7668;BME280;3876;42.204;24.686;2024-03-02T06:42:56;99042.19;;;8.87;100.00
7668;BME280;3876;42.204;24.686;2024-03-02T06:45:23;99028.66;;;8.85;100.00
7668;BME280;3876;42.204;24.686;2024-03-02T06:47:50;99037.19;;;8.84;100.00
7668;BME280;3876;42.204;24.686;2024-03-02T06:50:16;99040.59;;;8.83;100.00
7668;BME280;3876;42.204;24.686;2024-03-02T06:52:43;99029.34;;;8.90;100.00
7668;BME280;3876;42.204;24.686;2024-03-02T06:55:10;99017.56;;;8.84;100.00
7668;BME280;3876;42.204;24.686;2024-03-02T06:57:38;99036.78;;;8.98;100.00
7668;BME280;3876;42.204;24.686;2024-03-02T07:00:05;99043.63;;;8.97;100.00
7668;BME280;3876;42.204;24.686;2024-03-02T07:02:34;99045.16;;;9.03;100.00
7668;BME280;3876;42.204;24.686;2024-03-02T07:05:01;99051.97;;;9.02;100.00
7668;BME280;3876;42.204;24.686;2024-03-02T07:07:28;99052.97;;;8.98;100.00
7668;BME280;3876;42.204;24.686;2024-03-02T07:09:54;99052.25;;;8.93;100.00
7668;BME280;3876;42.204;24.686;2024-03-02T07:12:21;99045.63;;;8.86;100.00
7668;BME280;3876;42.204;24.686;2024-03-02T07:14:49;99036.72;;;8.70;100.00
7668;BME280;3876;42.204;24.686;2024-03-02T07:17:44;99053.44;;;8.81;100.00
7668;BME280;3876;42.204;24.686;2024-03-02T07:20:11;99043.97;;;8.85;100.00
7668;BME280;3876;42.204;24.686;2024-03-02T07:22:38;99037.28;;;8.81;100.00
7668;BME280;3876;42.204;24.686;2024-03-02T07:25:05;99031.03;;;8.89;100.00
7668;BME280;3876;42.204;24.686;2024-03-02T07:27:33;99021.47;;;8.96;100.00
7668;BME280;3876;42.204;24.686;2024-03-02T07:30:02;99030.84;;;8.95;100.00
7668;BME280;3876;42.204;24.686;2024-03-02T07:32:28;99033.28;;;9.00;100.00
7668;BME280;3876;42.204;24.686;2024-03-02T07:34:55;99024.84;;;8.98;100.00
7668;BME280;3876;42.204;24.686;2024-03-02T07:37:22;99041.84;;;8.99;100.00
7668;BME280;3876;42.204;24.686;2024-03-02T07:39:49;99045.06;;;9.06;100.00
7668;BME280;3876;42.204;24.686;2024-03-02T07:42:16;99039.91;;;9.07;100.00
7668;BME280;3876;42.204;24.686;2024-03-02T07:44:43;99052.50;;;9.13;100.00
7668;BME280;3876;42.204;24.686;2024-03-02T07:47:12;99061.88;;;9.14;100.00
7668;BME280;3876;42.204;24.686;2024-03-02T07:49:38;99058.50;;;9.12;100.00
7668;BME280;3876;42.204;24.686;2024-03-02T07:52:05;99055.25;;;9.07;100.00
7668;BME280;3876;42.204;24.686;2024-03-02T07:54:32;99062.84;;;9.09;100.00
7668;BME280;3876;42.204;24.686;2024-03-02T07:56:59;99046.84;;;9.02;100.00
7668;BME280;3876;42.204;24.686;2024-03-02T07:59:26;99053.53;;;9.08;100.00
7668;BME280;3876;42.204;24.686;2024-03-02T08:01:53;99057.63;;;9.13;100.00
7668;BME280;3876;42.204;24.686;2024-03-02T08:04:22;99051.44;;;9.20;100.00
7668;BME280;3876;42.204;24.686;2024-03-02T08:06:48;99055.63;;;9.23;100.00
7668;BME280;3876;42.204;24.686;2024-03-02T08:09:15;99057.88;;;9.33;100.00
7668;BME280;3876;42.204;24.686;2024-03-02T08:11:42;99069.75;;;9.34;100.00
7668;BME280;3876;42.204;24.686;2024-03-02T08:14:09;99070.38;;;9.42;100.00
7668;BME280;3876;42.204;24.686;2024-03-02T08:16:36;99067.91;;;9.39;100.00
7668;BME280;3876;42.204;24.686;2024-03-02T08:19:04;99069.56;;;9.40;100.00
7668;BME280;3876;42.204;24.686;2024-03-02T08:21:32;99076.56;;;9.35;100.00
7668;BME280;3876;42.204;24.686;2024-03-02T08:24:01;99069.84;;;9.31;100.00
7668;BME280;3876;42.204;24.686;2024-03-02T08:26:28;99062.13;;;9.33;100.00
7668;BME280;3876;42.204;24.686;2024-03-02T08:28:57;99062.03;;;9.36;100.00
7668;BME280;3876;42.204;24.686;2024-03-02T08:31:26;99066.31;;;9.35;100.00
7668;BME280;3876;42.204;24.686;2024-03-02T08:33:53;99061.06;;;9.40;100.00
7668;BME280;3876;42.204;24.686;2024-03-02T08:36:20;99045.66;;;9.41;100.00
7668;BME280;3876;42.204;24.686;2024-03-02T08:38:49;99056.31;;;9.56;100.00
7668;BME280;3876;42.204;24.686;2024-03-02T08:41:17;99073.31;;;9.57;100.00
7668;BME280;3876;42.204;24.686;2024-03-02T08:43:44;99060.72;;;9.50;100.00
7668;BME280;3876;42.204;24.686;2024-03-02T08:46:11;99045.06;;;9.60;100.00
7668;BME280;3876;42.204;24.686;2024-03-02T08:48:37;99052.59;;;9.64;100.00
7668;BME280;3876;42.204;24.686;2024-03-02T08:51:04;99061.34;;;9.59;100.00
7668;BME280;3876;42.204;24.686;2024-03-02T08:53:33;99048.81;;;9.49;100.00
7668;BME280;3876;42.204;24.686;2024-03-02T08:56:01;99054.50;;;9.59;100.00
7668;BME280;3876;42.204;24.686;2024-03-02T08:58:30;99058.88;;;9.56;100.00
7668;BME280;3876;42.204;24.686;2024-03-02T09:00:57;99050.47;;;9.50;100.00
7668;BME280;3876;42.204;24.686;2024-03-02T09:03:24;99062.09;;;9.61;100.00
7668;BME280;3876;42.204;24.686;2024-03-02T09:05:51;99051.56;;;9.70;100.00
7668;BME280;3876;42.204;24.686;2024-03-02T09:08:17;99047.28;;;9.70;100.00
7668;BME280;3876;42.204;24.686;2024-03-02T09:10:44;99047.28;;;9.70;100.00
7668;BME280;3876;42.204;24.686;2024-03-02T09:13:12;99035.53;;;9.65;100.00
7668;BME280;3876;42.204;24.686;2024-03-02T09:15:39;99065.47;;;9.63;100.00
7668;BME280;3876;42.204;24.686;2024-03-02T09:18:06;99061.13;;;9.65;100.00
7668;BME280;3876;42.204;24.686;2024-03-02T09:20:33;99065.31;;;9.67;100.00
7668;BME280;3876;42.204;24.686;2024-03-02T09:23:00;99051.31;;;9.79;100.00
7668;BME280;3876;42.204;24.686;2024-03-02T09:25:26;99049.50;;;9.81;100.00
7668;BME280;3876;42.204;24.686;2024-03-02T09:27:53;99060.44;;;9.86;100.00
7668;BME280;3876;42.204;24.686;2024-03-02T09:30:21;99056.22;;;9.85;100.00
7668;BME280;3876;42.204;24.686;2024-03-02T09:32:48;99065.50;;;9.87;100.00
7668;BME280;3876;42.204;24.686;2024-03-02T09:35:14;99064.47;;;9.93;100.00
7668;BME280;3876;42.204;24.686;2024-03-02T09:37:41;99026.56;;;9.78;100.00
7668;BME280;3876;42.204;24.686;2024-03-02T09:40:09;99068.47;;;10.01;100.00
7668;BME280;3876;42.204;24.686;2024-03-02T09:42:37;99060.72;;;10.03;100.00
7668;BME280;3876;42.204;24.686;2024-03-02T09:45:05;99070.97;;;10.03;100.00
7668;BME280;3876;42.204;24.686;2024-03-02T09:47:33;99064.16;;;10.02;100.00
7668;BME280;3876;42.204;24.686;2024-03-02T09:50:00;99065.91;;;10.01;100.00
7668;BME280;3876;42.204;24.686;2024-03-02T09:52:27;99067.31;;;10.10;100.00
7668;BME280;3876;42.204;24.686;2024-03-02T09:54:54;99069.28;;;10.02;100.00
7668;BME280;3876;42.204;24.686;2024-03-02T09:57:21;99063.94;;;10.08;100.00
7668;BME280;3876;42.204;24.686;2024-03-02T09:59:47;99060.41;;;10.12;100.00
7668;BME280;3876;42.204;24.686;2024-03-02T10:02:14;99060.00;;;10.24;100.00
7668;BME280;3876;42.204;24.686;2024-03-02T10:04:42;99057.41;;;10.26;100.00
7668;BME280;3876;42.204;24.686;2024-03-02T10:07:11;99059.75;;;10.32;100.00
7668;BME280;3876;42.204;24.686;2024-03-02T10:09:39;99046.91;;;10.33;100.00
7668;BME280;3876;42.204;24.686;2024-03-02T10:12:07;99054.16;;;10.45;100.00
7668;BME280;3876;42.204;24.686;2024-03-02T10:14:34;99055.28;;;10.62;100.00
7668;BME280;3876;42.204;24.686;2024-03-02T10:17:02;99061.88;;;10.69;100.00
7668;BME280;3876;42.204;24.686;2024-03-02T10:19:30;99061.88;;;10.69;100.00
7668;BME280;3876;42.204;24.686;2024-03-02T10:22:00;99055.06;;;10.68;100.00
7668;BME280;3876;42.204;24.686;2024-03-02T10:24:28;99061.75;;;10.72;100.00
7668;BME280;3876;42.204;24.686;2024-03-02T10:27:00;99054.06;;;10.48;100.00
7668;BME280;3876;42.204;24.686;2024-03-02T10:29:29;99049.38;;;10.36;100.00
7668;BME280;3876;42.204;24.686;2024-03-02T10:31:56;99046.91;;;10.33;100.00
7668;BME280;3876;42.204;24.686;2024-03-02T10:34:24;99051.13;;;10.34;100.00
7668;BME280;3876;42.204;24.686;2024-03-02T10:36:51;99040.75;;;10.37;100.00
7668;BME280;3876;42.204;24.686;2024-03-02T10:39:19;99035.44;;;10.19;100.00
7668;BME280;3876;42.204;24.686;2024-03-02T10:41:49;99034.41;;;10.24;100.00
7668;BME280;3876;42.204;24.686;2024-03-02T10:44:18;99035.09;;;10.29;100.00
7668;BME280;3876;42.204;24.686;2024-03-02T10:46:46;99030.75;;;10.31;100.00
7668;BME280;3876;42.204;24.686;2024-03-02T10:49:13;99027.97;;;10.37;100.00
7668;BME280;3876;42.204;24.686;2024-03-02T10:51:40;99017.88;;;10.33;100.00
7668;BME280;3876;42.204;24.686;2024-03-02T10:54:07;99021.31;;;10.32;100.00
7668;BME280;3876;42.204;24.686;2024-03-02T10:56:38;99013.09;;;10.24;100.00
7668;BME280;3876;42.204;24.686;2024-03-02T10:59:13;99017.25;;;10.26;100.00
7668;BME280;3876;42.204;24.686;2024-03-02T11:01:43;99012.13;;;10.26;100.00
7668;BME280;3876;42.204;24.686;2024-03-02T11:04:12;99013.09;;;10.24;100.00
7668;BME280;3876;42.204;24.686;2024-03-02T11:06:47;99012.75;;;10.33;100.00
7668;BME280;3876;42.204;24.686;2024-03-02T11:09:16;99015.47;;;10.28;100.00
7668;BME280;3876;42.204;24.686;2024-03-02T11:11:58;99011.97;;;10.31;100.00
7668;BME280;3876;42.204;24.686;2024-03-02T11:14:30;99013.72;;;10.30;100.00
7668;BME280;3876;42.204;24.686;2024-03-02T11:16:58;99013.38;;;10.39;100.00
7668;BME280;3876;42.204;24.686;2024-03-02T11:19:25;99006.44;;;10.43;100.00
7668;BME280;3876;42.204;24.686;2024-03-02T11:21:53;99010.59;;;10.45;100.00
7668;BME280;3876;42.204;24.686;2024-03-02T11:24:38;99008.16;;;10.42;100.00
7668;BME280;3876;42.204;24.686;2024-03-02T11:27:06;99007.81;;;10.51;100.00
7668;BME280;3876;42.204;24.686;2024-03-02T11:29:43;99002.41;;;10.59;100.00
7668;BME280;3876;42.204;24.686;2024-03-02T11:32:14;98979.25;;;10.62;100.00
7668;BME280;3876;42.204;24.686;2024-03-02T11:34:42;98986.34;;;10.77;100.00
7668;BME280;3876;42.204;24.686;2024-03-02T11:37:12;98987.72;;;10.86;100.00
7668;BME280;3876;42.204;24.686;2024-03-02T11:39:39;98986.47;;;10.96;100.00
7668;BME280;3876;42.204;24.686;2024-03-02T11:42:07;98988.94;;;10.99;100.00
7668;BME280;3876;42.204;24.686;2024-03-02T11:44:35;98994.97;;;10.98;100.00
7668;BME280;3876;42.204;24.686;2024-03-02T11:47:05;98988.34;;;11.14;100.00
7668;BME280;3876;42.204;24.686;2024-03-02T11:49:38;98981.97;;;11.24;100.00
7668;BME280;3876;42.204;24.686;2024-03-02T11:52:06;98969.03;;;11.27;100.00
7668;BME280;3876;42.204;24.686;2024-03-02T11:54:35;98960.16;;;11.34;100.00
7668;BME280;3876;42.204;24.686;2024-03-02T11:57:05;98965.97;;;11.39;100.00
7668;BME280;3876;42.204;24.686;2024-03-02T11:59:33;98974.72;;;11.55;100.00
7668;BME280;3876;42.204;24.686;2024-03-02T12:02:00;98974.56;;;11.58;100.00
7668;BME280;3876;42.204;24.686;2024-03-02T12:04:29;98981.13;;;11.66;100.00
7668;BME280;3876;42.204;24.686;2024-03-02T12:06:57;98962.25;;;11.67;100.00
7668;BME280;3876;42.204;24.686;2024-03-02T12:09:26;98963.56;;;11.77;100.00
7668;BME280;3876;42.204;24.686;2024-03-02T12:12:04;98963.66;;;11.95;100.00
7668;BME280;3876;42.204;24.686;2024-03-02T12:14:33;98959.19;;;11.99;100.00
7668;BME280;3876;42.204;24.686;2024-03-02T12:17:00;98957.41;;;12.01;100.00
7668;BME280;3876;42.204;24.686;2024-03-02T12:19:27;98955.47;;;12.06;100.00
7668;BME280;3876;42.204;24.686;2024-03-02T12:21:56;98960.81;;;12.01;100.00
7668;BME280;3876;42.204;24.686;2024-03-02T12:24:22;98951.34;;;12.02;100.00
7668;BME280;3876;42.204;24.686;2024-03-02T12:26:50;98954.03;;;11.99;100.00
7668;BME280;3876;42.204;24.686;2024-03-02T12:29:18;98952.13;;;12.04;100.00
7668;BME280;3876;42.204;24.686;2024-03-02T12:31:47;98951.25;;;12.05;100.00
7668;BME280;3876;42.204;24.686;2024-03-02T12:34:16;98951.34;;;12.02;100.00
7668;BME280;3876;42.204;24.686;2024-03-02T12:36:43;98950.47;;;12.03;100.00
7668;BME280;3876;42.204;24.686;2024-03-02T12:39:15;98953.81;;;12.05;100.00
7668;BME280;3876;42.204;24.686;2024-03-02T12:41:42;98956.38;;;12.05;100.00
7668;BME280;3876;42.204;24.686;2024-03-02T12:44:08;98948.25;;;11.95;100.00
7668;BME280;3876;42.204;24.686;2024-03-02T12:46:35;98963.31;;;12.03;100.00
7668;BME280;3876;42.204;24.686;2024-03-02T12:49:08;98963.97;;;12.08;100.00
7668;BME280;3876;42.204;24.686;2024-03-02T12:51:35;98970.59;;;12.12;100.00
7668;BME280;3876;42.204;24.686;2024-03-02T12:54:02;98969.59;;;12.16;100.00
7668;BME280;3876;42.204;24.686;2024-03-02T12:56:30;98971.53;;;12.11;100.00
7668;BME280;3876;42.204;24.686;2024-03-02T12:58:58;98973.03;;;12.15;100.00
7668;BME280;3876;42.204;24.686;2024-03-02T13:01:25;98974.84;;;12.13;100.00
7668;BME280;3876;42.204;24.686;2024-03-02T13:03:53;98970.59;;;12.12;100.00
7668;BME280;3876;42.204;24.686;2024-03-02T13:06:22;98974.72;;;12.16;100.00
7668;BME280;3876;42.204;24.686;2024-03-02T13:08:50;98978.19;;;12.15;100.00
7668;BME280;3876;42.204;24.686;2024-03-02T13:11:16;98982.44;;;12.16;100.00
7668;BME280;3876;42.204;24.686;2024-03-02T13:13:43;98969.91;;;12.08;100.00